createdAt,value
2018-02-14T00:01:29.756Z,6.85
2018-02-14T00:03:58.034Z,7.82
2018-02-14T00:06:26.310Z,7.30
2018-02-14T00:08:54.623Z,7.32
2018-02-14T00:11:22.126Z,8.60
2018-02-14T00:13:49.641Z,6.82
2018-02-14T00:16:17.131Z,8.00
2018-02-14T00:18:44.654Z,6.68
2018-02-14T00:21:12.152Z,5.87
2018-02-14T00:23:39.682Z,5.95
2018-02-14T00:26:07.177Z,7.40
2018-02-14T00:28:34.694Z,6.60
2018-02-14T00:31:02.223Z,6.78
2018-02-14T00:33:30.498Z,6.90
2018-02-14T00:35:58.776Z,5.57
2018-02-14T00:38:27.040Z,5.15
2018-02-14T00:40:55.330Z,6.57
2018-02-14T00:43:23.602Z,5.87
2018-02-14T00:45:51.915Z,5.55
2018-02-14T00:48:19.413Z,6.72
2018-02-14T00:50:46.941Z,6.40
2018-02-14T00:53:14.446Z,5.53
2018-02-14T00:55:42.722Z,5.93
2018-02-14T00:58:10.996Z,5.50
2018-02-14T01:00:39.272Z,5.80
2018-02-14T01:03:07.561Z,6.00
2018-02-14T01:05:35.848Z,6.32
2018-02-14T01:08:03.359Z,5.07
2018-02-14T01:10:30.857Z,5.25
2018-02-14T01:12:59.159Z,4.25
2018-02-14T01:15:26.679Z,4.85
2018-02-14T01:17:54.963Z,4.85
2018-02-14T01:20:28.938Z,4.20
2018-02-14T01:22:56.446Z,4.65
2018-02-14T01:25:23.961Z,4.68
2018-02-14T01:27:51.452Z,5.05
2018-02-14T01:30:19.738Z,5.20
2018-02-14T01:32:47.237Z,5.03
2018-02-14T01:35:14.756Z,6.00
2018-02-14T01:37:42.275Z,5.47
2018-02-14T01:40:09.806Z,4.30
2018-02-14T01:42:37.324Z,5.43
2018-02-14T01:45:05.598Z,3.97
2018-02-14T01:47:33.871Z,4.22
2018-02-14T01:50:02.158Z,4.80
2018-02-14T01:52:29.675Z,4.45
2018-02-14T01:54:57.168Z,5.53
2018-02-14T01:57:25.448Z,4.35
2018-02-14T01:59:52.945Z,4.50
2018-02-14T02:02:20.466Z,4.72
2018-02-14T02:04:47.989Z,4.80
2018-02-14T02:07:15.499Z,4.12
2018-02-14T02:09:43.017Z,4.10
2018-02-14T02:12:11.290Z,3.92
2018-02-14T02:14:39.582Z,4.05
2018-02-14T02:17:07.839Z,5.10
2018-02-14T02:19:35.361Z,4.43
2018-02-14T02:22:02.880Z,4.55
2018-02-14T02:24:31.174Z,3.87
2018-02-14T02:26:58.692Z,4.07
2018-02-14T02:29:27.726Z,4.15
2018-02-14T02:31:55.243Z,5.12
2018-02-14T02:34:22.765Z,3.92
2018-02-14T02:36:50.286Z,4.35
2018-02-14T02:39:30.478Z,4.20
2018-02-14T02:41:58.011Z,5.40
2018-02-14T02:44:25.504Z,3.60
2018-02-14T02:46:53.038Z,3.60
2018-02-14T02:49:20.558Z,5.15
2018-02-14T02:51:48.854Z,3.90
2018-02-14T02:54:16.380Z,4.70
2018-02-14T02:56:43.910Z,4.47
2018-02-14T02:59:11.404Z,3.70
2018-02-14T03:01:38.918Z,3.97
2018-02-14T03:04:06.450Z,4.05
2018-02-14T03:06:33.958Z,4.12
2018-02-14T03:09:01.495Z,3.65
2018-02-14T03:11:29.019Z,4.80
2018-02-14T03:13:57.313Z,4.32
2018-02-14T03:16:24.812Z,3.72
2018-02-14T03:18:52.332Z,4.35
2018-02-14T03:21:19.846Z,3.85
2018-02-14T03:23:47.371Z,4.30
2018-02-14T03:26:14.902Z,4.10
2018-02-14T03:28:42.399Z,4.37
2018-02-14T03:31:09.917Z,3.95
2018-02-14T03:33:37.428Z,4.15
2018-02-14T03:36:04.975Z,3.37
2018-02-14T03:38:32.480Z,4.90
2018-02-14T03:41:01.515Z,3.60
2018-02-14T03:43:29.034Z,3.28
2018-02-14T03:45:57.330Z,4.87
2018-02-14T03:48:24.854Z,4.43
2018-02-14T03:50:53.134Z,3.83
2018-02-14T03:53:21.428Z,4.68
2018-02-14T03:55:48.924Z,3.60
2018-02-14T03:58:16.442Z,3.80
2018-02-14T04:00:44.713Z,4.35
2018-02-14T04:03:12.258Z,4.75
2018-02-14T04:05:40.537Z,4.25
2018-02-14T04:08:08.827Z,3.50
2018-02-14T04:10:37.102Z,4.62
2018-02-14T04:13:05.370Z,4.07
2018-02-14T04:15:33.661Z,3.60
2018-02-14T04:18:01.159Z,3.90
2018-02-14T04:20:28.669Z,3.80
2018-02-14T04:22:56.954Z,3.53
2018-02-14T04:25:24.487Z,4.03
2018-02-14T04:27:51.984Z,4.60
2018-02-14T04:30:23.039Z,4.65
2018-02-14T04:32:50.542Z,3.40
2018-02-14T04:35:18.056Z,3.85
2018-02-14T04:37:45.590Z,3.80
2018-02-14T04:40:13.091Z,3.47
2018-02-14T04:42:40.616Z,3.60
2018-02-14T04:45:08.122Z,3.70
2018-02-14T04:47:35.639Z,4.15
2018-02-14T04:50:03.160Z,4.40
2018-02-14T04:52:31.444Z,4.70
2018-02-14T04:54:59.726Z,4.30
2018-02-14T04:57:28.027Z,3.83
2018-02-14T04:59:55.538Z,3.42
2018-02-14T05:02:23.054Z,4.12
2018-02-14T05:04:50.578Z,4.03
2018-02-14T05:07:18.854Z,4.68
2018-02-14T05:09:47.142Z,3.55
2018-02-14T05:12:14.657Z,3.15
2018-02-14T05:14:42.186Z,4.50
2018-02-14T05:17:09.703Z,3.90
2018-02-14T05:19:38.002Z,4.18
2018-02-14T05:22:05.516Z,4.20
2018-02-14T05:24:33.028Z,3.45
2018-02-14T05:27:00.558Z,3.40
2018-02-14T05:29:28.842Z,4.10
2018-02-14T05:31:56.371Z,3.25
2018-02-14T05:34:23.896Z,3.55
2018-02-14T05:36:51.417Z,4.55
2018-02-14T05:39:19.680Z,3.33
2018-02-14T05:41:47.959Z,4.55
2018-02-14T05:44:16.233Z,2.70
2018-02-14T05:46:44.515Z,4.05
2018-02-14T05:49:12.780Z,4.20
2018-02-14T05:51:41.054Z,2.90
2018-02-14T05:54:09.368Z,4.18
2018-02-14T05:56:36.878Z,5.50
2018-02-14T05:59:05.171Z,4.05
2018-02-14T06:01:33.438Z,4.75
2018-02-14T06:04:00.956Z,4.72
2018-02-14T06:06:28.471Z,4.97
2018-02-14T06:08:56.777Z,5.68
2018-02-14T06:11:24.280Z,5.28
2018-02-14T06:13:51.844Z,5.57
2018-02-14T06:16:19.350Z,5.32
2018-02-14T06:18:46.872Z,6.57
2018-02-14T06:21:15.161Z,4.57
2018-02-14T06:23:43.441Z,6.57
2018-02-14T06:26:11.740Z,5.70
2018-02-14T06:28:39.258Z,5.60
2018-02-14T06:31:06.782Z,5.15
2018-02-14T06:33:34.295Z,5.60
2018-02-14T06:36:02.595Z,6.25
2018-02-14T06:38:30.097Z,4.30
2018-02-14T06:40:57.596Z,6.10
2018-02-14T06:43:25.121Z,5.90
2018-02-14T06:45:52.634Z,5.55
2018-02-14T06:48:20.158Z,5.70
2018-02-14T06:50:48.435Z,4.25
2018-02-14T06:53:17.024Z,5.37
2018-02-14T06:55:44.525Z,5.32
2018-02-14T06:58:12.060Z,6.30
2018-02-14T07:00:39.564Z,5.10
2018-02-14T07:03:07.077Z,4.90
2018-02-14T07:05:34.601Z,5.97
2018-02-14T07:08:02.864Z,5.85
2018-02-14T07:10:30.390Z,5.68
2018-02-14T07:12:57.902Z,5.50
2018-02-14T07:15:26.194Z,5.93
2018-02-14T07:17:53.702Z,5.30
2018-02-14T07:20:21.217Z,5.03
2018-02-14T07:22:48.792Z,6.15
2018-02-14T07:25:16.312Z,4.53
2018-02-14T07:27:44.594Z,5.50
2018-02-14T07:30:12.855Z,4.65
2018-02-14T07:32:41.160Z,4.90
2018-02-14T07:35:09.698Z,5.45
2018-02-14T07:37:37.235Z,5.15
2018-02-14T07:40:04.746Z,4.75
2018-02-14T07:42:33.039Z,7.03
2018-02-14T07:45:00.550Z,6.20
2018-02-14T07:47:28.268Z,5.28
2018-02-14T07:49:55.901Z,6.22
2018-02-14T07:52:24.194Z,5.05
2018-02-14T07:54:51.714Z,5.30
2018-02-14T07:57:20.722Z,5.15
2018-02-14T07:59:49.005Z,5.45
2018-02-14T08:02:17.279Z,4.30
2018-02-14T08:04:45.552Z,5.93
2018-02-14T08:07:13.828Z,4.62
2018-02-14T08:09:42.111Z,5.30
2018-02-14T08:12:10.397Z,4.68
2018-02-14T08:14:37.941Z,4.65
2018-02-14T08:17:05.520Z,4.43
2018-02-14T08:19:32.980Z,5.10
2018-02-14T08:22:00.507Z,5.78
2018-02-14T08:24:28.015Z,5.75
2018-02-14T08:26:55.536Z,6.28
2018-02-14T08:29:23.802Z,6.37
2018-02-14T08:31:51.325Z,5.28
2018-02-14T08:34:18.849Z,7.12
2018-02-14T08:36:46.378Z,7.10
2018-02-14T08:39:13.881Z,8.75
2018-02-14T08:41:41.410Z,6.30
2018-02-14T08:44:09.667Z,7.40
2018-02-14T08:46:37.184Z,7.20
2018-02-14T08:49:04.699Z,5.60
2018-02-14T08:51:32.966Z,7.00
2018-02-14T08:54:01.250Z,6.70
2018-02-14T08:56:29.538Z,6.18
2018-02-14T08:58:57.806Z,5.90
2018-02-14T09:01:26.060Z,5.70
2018-02-14T09:03:53.599Z,6.37
2018-02-14T09:06:21.095Z,5.85
2018-02-14T09:08:49.351Z,4.65
2018-02-14T09:11:16.879Z,5.10
2018-02-14T09:13:44.376Z,6.10
2018-02-14T09:16:11.890Z,5.72
2018-02-14T09:18:39.385Z,4.97
2018-02-14T09:21:06.906Z,6.57
2018-02-14T09:23:34.399Z,5.65
2018-02-14T09:26:01.915Z,5.90
2018-02-14T09:28:29.419Z,5.35
2018-02-14T09:30:56.936Z,5.37
2018-02-14T09:33:24.442Z,5.75
2018-02-14T09:35:51.932Z,4.22
2018-02-14T09:38:19.455Z,4.70
2018-02-14T09:40:46.944Z,4.05
2018-02-14T09:43:14.478Z,4.43
2018-02-14T09:45:41.969Z,5.47
2018-02-14T09:48:09.490Z,3.92
2018-02-14T09:50:36.983Z,3.20
2018-02-14T09:53:04.510Z,4.87
2018-02-14T09:55:32.007Z,4.45
2018-02-14T09:57:59.505Z,3.75
2018-02-14T10:00:27.033Z,3.92
2018-02-14T10:02:54.543Z,4.22
2018-02-14T10:05:22.838Z,3.85
2018-02-14T10:07:51.092Z,2.95
2018-02-14T10:10:18.600Z,2.90
2018-02-14T10:12:46.102Z,3.17
2018-02-14T10:15:13.618Z,2.62
2018-02-14T10:17:41.108Z,2.45
2018-02-14T10:20:08.620Z,2.20
2018-02-14T10:22:36.138Z,2.70
2018-02-14T10:25:03.652Z,3.00
2018-02-14T10:27:31.161Z,4.07
2018-02-14T10:29:58.676Z,3.20
2018-02-14T10:32:26.184Z,3.87
2018-02-14T10:34:54.457Z,4.10
2018-02-14T10:37:22.742Z,3.58
2018-02-14T10:39:51.020Z,3.47
2018-02-14T10:42:19.317Z,3.05
2018-02-14T10:44:46.805Z,3.50
2018-02-14T10:47:14.298Z,3.05
2018-02-14T10:49:41.837Z,3.25
2018-02-14T10:52:10.332Z,3.65
2018-02-14T10:54:38.256Z,4.15
2018-02-14T10:57:05.755Z,3.97
2018-02-14T10:59:33.274Z,2.83
2018-02-14T11:02:06.346Z,3.60
2018-02-14T11:04:33.863Z,3.50
2018-02-14T11:07:07.052Z,3.65
2018-02-14T11:09:34.566Z,3.20
2018-02-14T11:12:02.071Z,2.92
2018-02-14T11:14:29.578Z,2.80
2018-02-14T11:16:57.094Z,3.12
2018-02-14T11:19:24.601Z,2.85
2018-02-14T11:21:52.124Z,2.42
2018-02-14T11:24:20.379Z,2.60
2018-02-14T11:26:47.896Z,1.90
2018-02-14T11:29:15.386Z,2.55
2018-02-14T11:31:42.915Z,2.80
2018-02-14T11:34:10.420Z,2.35
2018-02-14T11:36:37.912Z,2.22
2018-02-14T11:39:05.435Z,2.03
2018-02-14T11:41:32.970Z,2.17
2018-02-14T11:44:00.466Z,1.40
2018-02-14T11:46:28.730Z,1.50
2018-02-14T11:48:56.251Z,1.37
2018-02-14T11:51:23.750Z,1.35
2018-02-14T11:53:52.037Z,1.37
2018-02-14T11:56:20.316Z,2.00
2018-02-14T11:58:48.612Z,1.10
2018-02-14T12:01:16.118Z,1.20
2018-02-14T12:03:43.612Z,1.35
2018-02-14T12:06:11.885Z,1.48
2018-02-14T12:08:40.151Z,1.60
2018-02-14T12:11:08.420Z,1.50
2018-02-14T12:13:35.917Z,1.70
2018-02-14T12:16:03.448Z,1.60
2018-02-14T12:18:31.732Z,1.35
2018-02-14T12:21:00.008Z,1.62
2018-02-14T12:23:28.288Z,1.30
2018-02-14T12:25:56.558Z,1.77
2018-02-14T12:28:24.842Z,1.50
2018-02-14T12:30:53.105Z,1.70
2018-02-14T12:33:21.386Z,2.15
2018-02-14T12:35:49.649Z,1.40
2018-02-14T12:38:17.154Z,2.08
2018-02-14T12:40:44.668Z,2.35
2018-02-14T12:43:12.965Z,1.77
2018-02-14T12:45:41.245Z,1.83
2018-02-14T12:48:08.769Z,1.60
2018-02-14T12:50:36.447Z,1.87
2018-02-14T12:53:04.163Z,1.83
2018-02-14T12:55:31.999Z,1.80
2018-02-14T12:57:59.536Z,1.90
2018-02-14T13:00:28.025Z,1.87
2018-02-14T13:02:55.532Z,1.80
2018-02-14T13:05:23.051Z,2.00
2018-02-14T13:07:51.325Z,1.87
2018-02-14T13:10:19.615Z,2.10
2018-02-14T13:12:47.132Z,1.90
2018-02-14T13:15:14.671Z,2.22
2018-02-14T13:17:42.178Z,1.90
2018-02-14T13:20:10.450Z,2.90
2018-02-14T13:22:38.748Z,2.35
2018-02-14T13:25:06.254Z,2.00
2018-02-14T13:27:33.785Z,1.77
2018-02-14T13:30:01.301Z,1.85
2018-02-14T13:32:29.582Z,2.12
2018-02-14T13:34:57.072Z,2.33
2018-02-14T13:37:24.612Z,2.83
2018-02-14T13:39:52.113Z,2.10
2018-02-14T13:42:19.608Z,2.70
2018-02-14T13:44:47.904Z,2.95
2018-02-14T13:47:15.397Z,2.30
2018-02-14T13:49:43.678Z,2.00
2018-02-14T13:52:11.187Z,2.20
2018-02-14T13:54:38.698Z,3.20
2018-02-14T13:57:06.194Z,2.47
2018-02-14T13:59:34.486Z,2.50
2018-02-14T14:02:02.003Z,2.30
2018-02-14T14:04:29.517Z,2.20
2018-02-14T14:06:57.024Z,2.15
2018-02-14T14:09:24.544Z,2.40
2018-02-14T14:11:52.062Z,2.25
2018-02-14T14:14:20.340Z,2.58
2018-02-14T14:16:48.635Z,2.85
2018-02-14T14:19:16.124Z,2.20
2018-02-14T14:21:43.638Z,2.65
2018-02-14T14:24:11.900Z,2.80
2018-02-14T14:26:40.185Z,2.00
2018-02-14T14:29:08.445Z,2.30
2018-02-14T14:31:35.946Z,3.20
2018-02-14T14:34:03.487Z,2.15
2018-02-14T14:36:30.979Z,5.25
2018-02-14T14:38:58.494Z,2.50
2018-02-14T14:41:26.758Z,2.80
2018-02-14T14:43:55.057Z,2.45
2018-02-14T14:46:22.558Z,2.22
2018-02-14T14:48:50.078Z,2.17
2018-02-14T14:51:17.578Z,1.85
2018-02-14T14:53:45.100Z,2.60
2018-02-14T14:56:12.617Z,2.55
2018-02-14T14:58:40.109Z,1.70
2018-02-14T15:01:07.622Z,1.83
2018-02-14T15:03:35.904Z,2.03
2018-02-14T15:06:03.420Z,2.25
2018-02-14T15:08:30.926Z,2.65
2018-02-14T15:10:58.427Z,2.12
2018-02-14T15:13:26.388Z,2.50
2018-02-14T15:15:54.358Z,2.30
2018-02-14T15:18:21.844Z,2.33
2018-02-14T15:20:49.346Z,2.60
2018-02-14T15:23:17.629Z,2.10
2018-02-14T15:25:45.890Z,2.30
2018-02-14T15:28:13.440Z,2.45
2018-02-14T15:30:40.937Z,2.60
2018-02-14T15:33:09.229Z,2.28
2018-02-14T15:35:36.745Z,2.17
2018-02-14T15:38:05.880Z,2.10
2018-02-14T15:40:33.393Z,1.70
2018-02-14T15:43:01.733Z,1.85
2018-02-14T15:45:29.253Z,1.80
2018-02-14T15:47:58.149Z,2.50
2018-02-14T15:50:26.523Z,2.62
2018-02-14T15:52:55.003Z,1.65
2018-02-14T15:55:22.547Z,1.87
2018-02-14T15:57:50.139Z,2.37
2018-02-14T16:00:17.658Z,1.98
2018-02-14T16:02:45.174Z,2.45
2018-02-14T16:05:13.091Z,2.85
2018-02-14T16:07:40.629Z,2.10
2018-02-14T16:10:08.129Z,2.30
2018-02-14T16:12:35.658Z,2.45
2018-02-14T16:15:03.168Z,2.53
2018-02-14T16:17:30.699Z,3.40
2018-02-14T16:19:59.074Z,2.92
2018-02-14T16:22:27.588Z,2.45
2018-02-14T16:24:55.097Z,3.17
2018-02-14T16:27:22.606Z,3.75
2018-02-14T16:29:50.106Z,3.72
2018-02-14T16:32:17.610Z,3.33
2018-02-14T16:34:45.239Z,5.35
2018-02-14T16:37:13.075Z,7.75
2018-02-14T16:39:40.826Z,4.95
2018-02-14T16:42:08.604Z,3.95
2018-02-14T16:44:36.525Z,3.72
2018-02-14T16:47:04.058Z,3.42
2018-02-14T16:49:31.582Z,3.03
2018-02-14T16:51:59.085Z,2.97
2018-02-14T16:54:27.368Z,2.42
2018-02-14T16:56:55.634Z,2.70
2018-02-14T16:59:23.150Z,2.10
2018-02-14T17:01:50.734Z,2.22
2018-02-14T17:04:18.238Z,2.12
2018-02-14T17:06:45.752Z,2.70
2018-02-14T17:09:13.258Z,2.78
2018-02-14T17:11:40.803Z,2.60
2018-02-14T17:14:09.084Z,4.25
2018-02-14T17:16:37.225Z,3.30
2018-02-14T17:19:04.802Z,2.50
2018-02-14T17:21:33.074Z,3.70
2018-02-14T17:24:01.356Z,5.43
2018-02-14T17:26:29.635Z,4.55
2018-02-14T17:28:57.932Z,3.47
2018-02-14T17:31:25.432Z,3.10
2018-02-14T17:33:53.276Z,2.50
2018-02-14T17:36:20.804Z,3.17
2018-02-14T17:38:49.097Z,3.10
2018-02-14T17:41:16.597Z,3.30
2018-02-14T17:43:44.141Z,3.37
2018-02-14T17:46:11.639Z,3.33
2018-02-14T17:48:39.918Z,5.37
2018-02-14T17:51:08.216Z,5.87
2018-02-14T17:53:35.712Z,4.40
2018-02-14T17:56:03.236Z,4.60
2018-02-14T17:58:30.741Z,4.10
2018-02-14T18:00:58.279Z,3.62
2018-02-14T18:03:25.795Z,4.00
2018-02-14T18:05:54.118Z,4.28
2018-02-14T18:08:21.601Z,5.93
2018-02-14T18:10:49.136Z,4.82
2018-02-14T18:13:16.659Z,5.43
2018-02-14T18:15:44.170Z,6.32
2018-02-14T18:18:11.704Z,5.80
2018-02-14T18:20:39.225Z,6.43
2018-02-14T18:23:07.524Z,5.85
2018-02-14T18:25:35.034Z,6.00
2018-02-14T18:28:02.595Z,6.30
2018-02-14T18:30:30.107Z,8.15
2018-02-14T18:32:57.632Z,8.10
2018-02-14T18:35:25.917Z,7.82
2018-02-14T18:37:54.194Z,7.95
2018-02-14T18:40:22.473Z,7.97
2018-02-14T18:42:50.741Z,6.65
2018-02-14T18:45:19.026Z,8.02
2018-02-14T18:47:46.524Z,6.45
2018-02-14T18:50:14.044Z,6.72
2018-02-14T18:52:41.541Z,6.55
2018-02-14T18:55:09.062Z,6.87
2018-02-14T18:57:36.561Z,5.80
2018-02-14T19:00:04.082Z,6.47
2018-02-14T19:02:31.596Z,6.35
2018-02-14T19:04:59.099Z,5.53
2018-02-14T19:07:26.618Z,6.65
2018-02-14T19:09:54.131Z,8.27
2018-02-14T19:12:21.668Z,6.30
2018-02-14T19:14:49.532Z,7.22
2018-02-14T19:17:17.351Z,7.53
2018-02-14T19:19:44.875Z,13.10
2018-02-14T19:22:12.455Z,9.65
2018-02-14T19:24:39.942Z,11.02
2018-02-14T19:27:07.458Z,7.55
2018-02-14T19:29:34.998Z,10.35
2018-02-14T19:32:02.514Z,11.15
2018-02-14T19:34:30.033Z,8.40
2018-02-14T19:36:57.552Z,7.22
2018-02-14T19:39:25.845Z,7.95
2018-02-14T19:41:54.128Z,7.85
2018-02-14T19:44:21.658Z,8.55
2018-02-14T19:46:49.970Z,6.45
2018-02-14T19:49:17.496Z,8.55
2018-02-14T19:51:45.781Z,8.77
2018-02-14T19:54:14.067Z,7.57
2018-02-14T19:56:42.404Z,9.05
2018-02-14T19:59:09.931Z,7.50
2018-02-14T20:01:37.632Z,8.43
2018-02-14T20:04:05.815Z,8.50
2018-02-14T20:06:34.116Z,7.60
2018-02-14T20:09:02.864Z,8.05
2018-02-14T20:11:30.575Z,8.95
2018-02-14T20:13:58.461Z,8.43
2018-02-14T20:16:26.015Z,8.32
2018-02-14T20:18:53.544Z,8.73
2018-02-14T20:21:21.804Z,8.02
2018-02-14T20:23:49.338Z,7.22
2018-02-14T20:26:17.614Z,7.80
2018-02-14T20:28:45.129Z,7.65
2018-02-14T20:31:12.642Z,7.25
2018-02-14T20:33:40.174Z,8.82
2018-02-14T20:36:07.668Z,8.20
2018-02-14T20:38:35.188Z,7.18
2018-02-14T20:41:02.726Z,7.25
2018-02-14T20:43:30.237Z,8.30
2018-02-14T20:45:57.753Z,6.60
2018-02-14T20:48:25.257Z,6.85
2018-02-14T20:50:53.553Z,7.82
2018-02-14T20:53:21.841Z,7.70
2018-02-14T20:55:49.374Z,7.40
2018-02-14T20:58:16.883Z,7.70
2018-02-14T21:00:44.426Z,6.43
2018-02-14T21:03:11.948Z,7.18
2018-02-14T21:05:39.909Z,7.32
2018-02-14T21:08:07.431Z,7.95
2018-02-14T21:10:34.962Z,7.75
2018-02-14T21:13:03.383Z,7.15
2018-02-14T21:15:31.062Z,7.47
2018-02-14T21:17:58.581Z,7.50
2018-02-14T21:20:26.130Z,7.80
2018-02-14T21:22:53.715Z,6.97
2018-02-14T21:25:21.277Z,7.85
2018-02-14T21:27:48.813Z,6.30
2018-02-14T21:30:16.501Z,6.15
2018-02-14T21:32:43.997Z,7.12
2018-02-14T21:35:11.530Z,6.05
2018-02-14T21:37:39.029Z,5.82
2018-02-14T21:40:07.306Z,6.30
2018-02-14T21:42:35.602Z,6.78
2018-02-14T21:45:03.102Z,6.40
2018-02-14T21:47:30.618Z,7.87
2018-02-14T21:49:58.137Z,5.37
2018-02-14T21:52:26.404Z,5.60
2018-02-14T21:54:53.909Z,5.68
2018-02-14T21:57:21.442Z,6.37
2018-02-14T21:59:48.950Z,5.30
2018-02-14T22:02:16.462Z,6.00
2018-02-14T22:04:44.766Z,5.40
2018-02-14T22:07:12.284Z,6.62
2018-02-14T22:09:39.799Z,6.18
2018-02-14T22:12:07.334Z,6.03
2018-02-14T22:14:34.841Z,6.53
2018-02-14T22:17:03.108Z,5.40
2018-02-14T22:19:30.632Z,5.43
2018-02-14T22:21:58.134Z,5.60
2018-02-14T22:24:25.667Z,4.25
2018-02-14T22:26:53.885Z,4.65
2018-02-14T22:29:21.377Z,5.22
2018-02-14T22:31:48.896Z,4.55
2018-02-14T22:34:16.417Z,4.00
2018-02-14T22:36:43.941Z,4.87
2018-02-14T22:39:12.224Z,4.45
2018-02-14T22:41:40.531Z,3.83
2018-02-14T22:44:08.025Z,4.30
2018-02-14T22:46:35.525Z,5.40
2018-02-14T22:49:03.036Z,4.70
2018-02-14T22:51:30.527Z,4.95
2018-02-14T22:53:58.823Z,4.75
2018-02-14T22:56:26.329Z,4.50
2018-02-14T22:58:53.854Z,5.22
2018-02-14T23:01:21.358Z,4.90
2018-02-14T23:03:49.637Z,5.35
2018-02-14T23:06:17.926Z,5.05
2018-02-14T23:08:46.184Z,4.57
2018-02-14T23:11:13.694Z,4.40
2018-02-14T23:13:41.207Z,4.50
2018-02-14T23:16:08.729Z,5.03
2018-02-14T23:18:36.220Z,4.93
2018-02-14T23:21:04.514Z,3.87
2018-02-14T23:23:32.790Z,4.90
2018-02-14T23:26:01.090Z,4.37
2018-02-14T23:28:28.605Z,5.47
2018-02-14T23:30:56.122Z,4.82
2018-02-14T23:33:23.649Z,5.22
2018-02-14T23:35:51.917Z,3.75
2018-02-14T23:38:20.198Z,4.72
2018-02-14T23:40:48.460Z,3.65
2018-02-14T23:43:16.736Z,4.37
2018-02-14T23:45:45.005Z,4.72
2018-02-14T23:48:14.038Z,4.70
2018-02-14T23:50:41.580Z,4.40
2018-02-14T23:53:09.952Z,4.03
2018-02-14T23:55:38.221Z,4.07
2018-02-14T23:58:06.490Z,3.72
